sensor_id;sensor_type;location;lat;lon;timestamp;P1;durP1;ratioP1;P2;durP2;ratioP2
12760;SDS011;6444;49.742;6.114;2023-01-25T00:00:53;19.53;;;11.63;;
12760;SDS011;6444;49.742;6.114;2023-01-25T00:03:20;17.67;;;11.43;;
12760;SDS011;6444;49.742;6.114;2023-01-25T00:05:47;19.40;;;11.57;;
12760;SDS011;6444;49.742;6.114;2023-01-25T00:08:14;17.87;;;10.40;;
12760;SDS011;6444;49.742;6.114;2023-01-25T00:10:41;21.83;;;11.97;;
12760;SDS011;6444;49.742;6.114;2023-01-25T00:13:07;19.53;;;11.27;;
12760;SDS011;6444;49.742;6.114;2023-01-25T00:15:35;15.57;;;9.20;;
12760;SDS011;6444;49.742;6.114;2023-01-25T00:18:01;15.60;;;9.40;;
12760;SDS011;6444;49.742;6.114;2023-01-25T00:20:28;18.02;;;13.65;;
12760;SDS011;6444;49.742;6.114;2023-01-25T00:22:54;19.33;;;14.45;;
12760;SDS011;6444;49.742;6.114;2023-01-25T00:25:21;17.00;;;11.73;;
12760;SDS011;6444;49.742;6.114;2023-01-25T00:27:48;16.73;;;9.53;;
12760;SDS011;6444;49.742;6.114;2023-01-25T00:30:14;14.83;;;9.10;;
12760;SDS011;6444;49.742;6.114;2023-01-25T00:35:13;15.47;;;9.17;;
12760;SDS011;6444;49.742;6.114;2023-01-25T00:37:43;15.30;;;9.33;;
12760;SDS011;6444;49.742;6.114;2023-01-25T00:40:10;15.40;;;9.80;;
12760;SDS011;6444;49.742;6.114;2023-01-25T00:42:36;16.07;;;9.60;;
12760;SDS011;6444;49.742;6.114;2023-01-25T00:45:03;14.80;;;9.47;;
12760;SDS011;6444;49.742;6.114;2023-01-25T00:47:30;14.97;;;9.93;;
12760;SDS011;6444;49.742;6.114;2023-01-25T00:49:57;14.57;;;9.53;;
12760;SDS011;6444;49.742;6.114;2023-01-25T00:52:23;17.73;;;10.20;;
12760;SDS011;6444;49.742;6.114;2023-01-25T00:54:51;17.47;;;9.93;;
12760;SDS011;6444;49.742;6.114;2023-01-25T00:57:17;15.00;;;8.43;;
12760;SDS011;6444;49.742;6.114;2023-01-25T00:59:44;15.03;;;8.83;;
12760;SDS011;6444;49.742;6.114;2023-01-25T01:02:11;14.80;;;9.20;;
12760;SDS011;6444;49.742;6.114;2023-01-25T01:04:38;15.13;;;9.57;;
12760;SDS011;6444;49.742;6.114;2023-01-25T01:07:05;13.77;;;8.60;;
12760;SDS011;6444;49.742;6.114;2023-01-25T01:09:31;14.97;;;10.00;;
12760;SDS011;6444;49.742;6.114;2023-01-25T01:11:59;14.80;;;9.93;;
12760;SDS011;6444;49.742;6.114;2023-01-25T01:14:25;14.50;;;9.27;;
12760;SDS011;6444;49.742;6.114;2023-01-25T01:16:52;16.03;;;10.00;;
12760;SDS011;6444;49.742;6.114;2023-01-25T01:19:19;16.33;;;10.37;;
12760;SDS011;6444;49.742;6.114;2023-01-25T01:21:45;14.67;;;9.67;;
12760;SDS011;6444;49.742;6.114;2023-01-25T01:24:12;15.53;;;10.07;;
12760;SDS011;6444;49.742;6.114;2023-01-25T01:26:38;15.67;;;9.80;;
12760;SDS011;6444;49.742;6.114;2023-01-25T01:29:05;22.23;;;12.30;;
12760;SDS011;6444;49.742;6.114;2023-01-25T01:31:32;19.80;;;12.50;;
12760;SDS011;6444;49.742;6.114;2023-01-25T01:33:58;19.60;;;11.60;;
12760;SDS011;6444;49.742;6.114;2023-01-25T01:36:26;20.20;;;12.30;;
12760;SDS011;6444;49.742;6.114;2023-01-25T01:38:52;17.50;;;11.13;;
12760;SDS011;6444;49.742;6.114;2023-01-25T01:41:19;17.67;;;11.73;;
12760;SDS011;6444;49.742;6.114;2023-01-25T01:43:46;19.20;;;10.87;;
12760;SDS011;6444;49.742;6.114;2023-01-25T01:46:14;18.97;;;10.93;;
12760;SDS011;6444;49.742;6.114;2023-01-25T01:48:48;17.40;;;11.03;;
12760;SDS011;6444;49.742;6.114;2023-01-25T01:51:16;17.23;;;10.67;;
12760;SDS011;6444;49.742;6.114;2023-01-25T01:53:45;18.03;;;11.37;;
12760;SDS011;6444;49.742;6.114;2023-01-25T01:56:12;19.07;;;11.07;;
12760;SDS011;6444;49.742;6.114;2023-01-25T01:58:37;18.67;;;11.10;;
12760;SDS011;6444;49.742;6.114;2023-01-25T02:01:04;17.53;;;10.43;;
12760;SDS011;6444;49.742;6.114;2023-01-25T02:03:31;16.87;;;11.10;;
12760;SDS011;6444;49.742;6.114;2023-01-25T02:06:04;18.67;;;10.50;;
12760;SDS011;6444;49.742;6.114;2023-01-25T02:08:31;18.60;;;9.73;;
12760;SDS011;6444;49.742;6.114;2023-01-25T02:10:56;18.17;;;10.50;;
12760;SDS011;6444;49.742;6.114;2023-01-25T02:13:23;15.50;;;9.70;;
12760;SDS011;6444;49.742;6.114;2023-01-25T02:15:50;18.70;;;11.63;;
12760;SDS011;6444;49.742;6.114;2023-01-25T02:18:17;17.93;;;11.03;;
12760;SDS011;6444;49.742;6.114;2023-01-25T02:20:47;20.47;;;11.17;;
12760;SDS011;6444;49.742;6.114;2023-01-25T02:26:04;21.00;;;12.63;;
12760;SDS011;6444;49.742;6.114;2023-01-25T02:28:44;17.73;;;10.83;;
12760;SDS011;6444;49.742;6.114;2023-01-25T02:31:09;18.27;;;11.27;;
12760;SDS011;6444;49.742;6.114;2023-01-25T02:33:35;19.43;;;10.67;;
12760;SDS011;6444;49.742;6.114;2023-01-25T02:38:38;19.20;;;11.87;;
12760;SDS011;6444;49.742;6.114;2023-01-25T02:46:19;27.02;;;18.70;;
12760;SDS011;6444;49.742;6.114;2023-01-25T02:48:42;22.10;;;14.47;;
12760;SDS011;6444;49.742;6.114;2023-01-25T02:51:08;23.03;;;14.13;;
12760;SDS011;6444;49.742;6.114;2023-01-25T02:53:35;23.57;;;13.67;;
12760;SDS011;6444;49.742;6.114;2023-01-25T02:56:03;24.03;;;13.57;;
12760;SDS011;6444;49.742;6.114;2023-01-25T02:58:29;24.00;;;12.77;;
12760;SDS011;6444;49.742;6.114;2023-01-25T03:00:56;21.90;;;12.60;;
12760;SDS011;6444;49.742;6.114;2023-01-25T03:03:22;27.60;;;18.45;;
12760;SDS011;6444;49.742;6.114;2023-01-25T03:05:49;21.80;;;13.50;;
12760;SDS011;6444;49.742;6.114;2023-01-25T03:08:16;19.07;;;12.03;;
12760;SDS011;6444;49.742;6.114;2023-01-25T03:10:42;21.23;;;12.57;;
12760;SDS011;6444;49.742;6.114;2023-01-25T03:13:09;21.00;;;12.90;;
12760;SDS011;6444;49.742;6.114;2023-01-25T03:15:35;20.40;;;11.80;;
12760;SDS011;6444;49.742;6.114;2023-01-25T03:18:02;16.83;;;10.43;;
12760;SDS011;6444;49.742;6.114;2023-01-25T03:20:29;20.47;;;12.17;;
12760;SDS011;6444;49.742;6.114;2023-01-25T03:22:55;20.33;;;11.80;;
12760;SDS011;6444;49.742;6.114;2023-01-25T03:25:22;18.80;;;10.83;;
12760;SDS011;6444;49.742;6.114;2023-01-25T03:27:49;18.83;;;11.90;;
12760;SDS011;6444;49.742;6.114;2023-01-25T03:30:15;21.30;;;12.00;;
12760;SDS011;6444;49.742;6.114;2023-01-25T03:32:42;23.63;;;12.67;;
12760;SDS011;6444;49.742;6.114;2023-01-25T03:35:08;20.67;;;11.83;;
12760;SDS011;6444;49.742;6.114;2023-01-25T03:37:35;19.20;;;12.07;;
12760;SDS011;6444;49.742;6.114;2023-01-25T03:40:02;20.80;;;11.97;;
12760;SDS011;6444;49.742;6.114;2023-01-25T03:42:28;19.50;;;11.77;;
12760;SDS011;6444;49.742;6.114;2023-01-25T03:44:55;19.40;;;12.00;;
12760;SDS011;6444;49.742;6.114;2023-01-25T03:47:22;18.00;;;11.47;;
12760;SDS011;6444;49.742;6.114;2023-01-25T03:49:48;22.87;;;12.43;;
12760;SDS011;6444;49.742;6.114;2023-01-25T03:52:16;20.57;;;11.50;;
12760;SDS011;6444;49.742;6.114;2023-01-25T03:54:42;18.30;;;11.73;;
12760;SDS011;6444;49.742;6.114;2023-01-25T03:57:09;20.37;;;11.63;;
12760;SDS011;6444;49.742;6.114;2023-01-25T03:59:36;20.83;;;11.63;;
12760;SDS011;6444;49.742;6.114;2023-01-25T04:02:02;18.13;;;11.50;;
12760;SDS011;6444;49.742;6.114;2023-01-25T04:04:29;21.93;;;12.40;;
12760;SDS011;6444;49.742;6.114;2023-01-25T04:06:55;21.30;;;12.53;;
12760;SDS011;6444;49.742;6.114;2023-01-25T04:09:22;21.63;;;11.70;;
12760;SDS011;6444;49.742;6.114;2023-01-25T04:11:49;25.77;;;16.98;;
12760;SDS011;6444;49.742;6.114;2023-01-25T04:14:15;26.80;;;17.23;;
12760;SDS011;6444;49.742;6.114;2023-01-25T04:16:42;25.60;;;16.90;;
12760;SDS011;6444;49.742;6.114;2023-01-25T04:19:09;23.27;;;13.93;;
12760;SDS011;6444;49.742;6.114;2023-01-25T04:21:35;21.87;;;12.77;;
12760;SDS011;6444;49.742;6.114;2023-01-25T04:24:02;24.20;;;13.60;;
12760;SDS011;6444;49.742;6.114;2023-01-25T04:26:28;20.87;;;12.03;;
12760;SDS011;6444;49.742;6.114;2023-01-25T04:28:55;25.45;;;16.87;;
12760;SDS011;6444;49.742;6.114;2023-01-25T04:31:22;22.50;;;13.33;;
12760;SDS011;6444;49.742;6.114;2023-01-25T04:33:48;22.67;;;12.90;;
12760;SDS011;6444;49.742;6.114;2023-01-25T04:36:16;21.93;;;12.67;;
12760;SDS011;6444;49.742;6.114;2023-01-25T04:38:42;24.87;;;13.67;;
12760;SDS011;6444;49.742;6.114;2023-01-25T04:41:09;24.90;;;13.17;;
12760;SDS011;6444;49.742;6.114;2023-01-25T04:43:36;20.53;;;11.97;;
12760;SDS011;6444;49.742;6.114;2023-01-25T04:46:02;24.63;;;12.30;;
12760;SDS011;6444;49.742;6.114;2023-01-25T04:48:30;20.37;;;11.23;;
12760;SDS011;6444;49.742;6.114;2023-01-25T04:50:56;25.83;;;14.07;;
12760;SDS011;6444;49.742;6.114;2023-01-25T04:53:23;25.50;;;12.80;;
12760;SDS011;6444;49.742;6.114;2023-01-25T04:55:50;24.13;;;12.70;;
12760;SDS011;6444;49.742;6.114;2023-01-25T04:58:16;23.63;;;12.93;;
12760;SDS011;6444;49.742;6.114;2023-01-25T05:00:44;25.30;;;14.43;;
12760;SDS011;6444;49.742;6.114;2023-01-25T05:03:10;25.43;;;12.33;;
12760;SDS011;6444;49.742;6.114;2023-01-25T05:05:37;25.40;;;13.23;;
12760;SDS011;6444;49.742;6.114;2023-01-25T05:08:03;24.53;;;13.50;;
12760;SDS011;6444;49.742;6.114;2023-01-25T05:10:31;24.57;;;12.93;;
12760;SDS011;6444;49.742;6.114;2023-01-25T05:12:57;26.57;;;13.83;;
12760;SDS011;6444;49.742;6.114;2023-01-25T05:15:24;27.63;;;13.47;;
12760;SDS011;6444;49.742;6.114;2023-01-25T05:17:51;25.60;;;14.00;;
12760;SDS011;6444;49.742;6.114;2023-01-25T05:20:17;25.77;;;12.13;;
12760;SDS011;6444;49.742;6.114;2023-01-25T05:22:44;29.30;;;14.23;;
12760;SDS011;6444;49.742;6.114;2023-01-25T05:25:11;27.83;;;14.33;;
12760;SDS011;6444;49.742;6.114;2023-01-25T05:27:37;26.43;;;14.10;;
12760;SDS011;6444;49.742;6.114;2023-01-25T05:30:04;33.33;;;19.02;;
12760;SDS011;6444;49.742;6.114;2023-01-25T05:32:31;33.55;;;19.27;;
12760;SDS011;6444;49.742;6.114;2023-01-25T05:34:57;25.43;;;14.70;;
12760;SDS011;6444;49.742;6.114;2023-01-25T05:37:24;31.80;;;19.37;;
12760;SDS011;6444;49.742;6.114;2023-01-25T05:39:51;32.75;;;19.65;;
12760;SDS011;6444;49.742;6.114;2023-01-25T05:42:17;30.10;;;18.27;;
12760;SDS011;6444;49.742;6.114;2023-01-25T05:44:44;26.33;;;14.77;;
12760;SDS011;6444;49.742;6.114;2023-01-25T05:47:14;26.43;;;14.07;;
12760;SDS011;6444;49.742;6.114;2023-01-25T05:49:40;23.73;;;14.10;;
12760;SDS011;6444;49.742;6.114;2023-01-25T05:52:09;27.37;;;13.67;;
12760;SDS011;6444;49.742;6.114;2023-01-25T05:54:33;24.53;;;13.10;;
12760;SDS011;6444;49.742;6.114;2023-01-25T05:57:01;26.57;;;13.70;;
12760;SDS011;6444;49.742;6.114;2023-01-25T05:59:27;30.10;;;13.83;;
12760;SDS011;6444;49.742;6.114;2023-01-25T06:01:54;20.80;;;11.47;;
12760;SDS011;6444;49.742;6.114;2023-01-25T06:04:21;22.27;;;12.60;;
12760;SDS011;6444;49.742;6.114;2023-01-25T06:06:47;28.87;;;13.53;;
12760;SDS011;6444;49.742;6.114;2023-01-25T06:09:17;21.20;;;10.70;;
12760;SDS011;6444;49.742;6.114;2023-01-25T06:11:44;20.60;;;11.57;;
12760;SDS011;6444;49.742;6.114;2023-01-25T06:14:12;20.87;;;11.17;;
12760;SDS011;6444;49.742;6.114;2023-01-25T06:16:38;19.50;;;11.10;;
12760;SDS011;6444;49.742;6.114;2023-01-25T06:19:05;20.63;;;10.73;;
12760;SDS011;6444;49.742;6.114;2023-01-25T06:21:32;21.17;;;11.33;;
12760;SDS011;6444;49.742;6.114;2023-01-25T06:23:59;22.70;;;11.77;;
12760;SDS011;6444;49.742;6.114;2023-01-25T06:26:25;22.80;;;11.30;;
12760;SDS011;6444;49.742;6.114;2023-01-25T06:28:52;22.23;;;11.07;;
12760;SDS011;6444;49.742;6.114;2023-01-25T06:31:19;24.43;;;11.80;;
12760;SDS011;6444;49.742;6.114;2023-01-25T06:33:47;25.47;;;11.40;;
12760;SDS011;6444;49.742;6.114;2023-01-25T06:36:14;17.73;;;9.73;;
12760;SDS011;6444;49.742;6.114;2023-01-25T06:38:39;19.67;;;10.07;;
12760;SDS011;6444;49.742;6.114;2023-01-25T06:41:06;20.27;;;10.47;;
12760;SDS011;6444;49.742;6.114;2023-01-25T06:43:33;17.13;;;10.33;;
12760;SDS011;6444;49.742;6.114;2023-01-25T06:46:03;20.90;;;10.23;;
12760;SDS011;6444;49.742;6.114;2023-01-25T06:48:29;19.87;;;10.50;;
12760;SDS011;6444;49.742;6.114;2023-01-25T06:50:56;22.40;;;11.03;;
12760;SDS011;6444;49.742;6.114;2023-01-25T06:53:23;18.50;;;9.60;;
12760;SDS011;6444;49.742;6.114;2023-01-25T06:55:58;19.80;;;10.17;;
12760;SDS011;6444;49.742;6.114;2023-01-25T06:58:28;25.73;;;15.32;;
12760;SDS011;6444;49.742;6.114;2023-01-25T07:00:58;20.33;;;10.57;;
12760;SDS011;6444;49.742;6.114;2023-01-25T07:03:21;18.80;;;10.40;;
12760;SDS011;6444;49.742;6.114;2023-01-25T07:05:47;21.90;;;10.80;;
12760;SDS011;6444;49.742;6.114;2023-01-25T07:08:14;21.83;;;10.43;;
12760;SDS011;6444;49.742;6.114;2023-01-25T07:10:41;18.23;;;9.10;;
12760;SDS011;6444;49.742;6.114;2023-01-25T07:13:08;20.03;;;10.27;;
12760;SDS011;6444;49.742;6.114;2023-01-25T07:15:35;19.97;;;11.07;;
12760;SDS011;6444;49.742;6.114;2023-01-25T07:18:01;20.83;;;10.20;;
12760;SDS011;6444;49.742;6.114;2023-01-25T07:20:29;28.50;;;12.83;;
12760;SDS011;6444;49.742;6.114;2023-01-25T07:22:55;20.77;;;11.40;;
12760;SDS011;6444;49.742;6.114;2023-01-25T07:25:22;23.07;;;11.93;;
12760;SDS011;6444;49.742;6.114;2023-01-25T07:27:48;23.83;;;13.00;;
12760;SDS011;6444;49.742;6.114;2023-01-25T07:30:15;26.60;;;12.67;;
12760;SDS011;6444;49.742;6.114;2023-01-25T07:32:42;22.30;;;11.90;;
12760;SDS011;6444;49.742;6.114;2023-01-25T07:35:08;29.20;;;16.10;;
12760;SDS011;6444;49.742;6.114;2023-01-25T07:37:35;28.33;;;14.17;;
12760;SDS011;6444;49.742;6.114;2023-01-25T07:40:02;24.23;;;12.60;;
12760;SDS011;6444;49.742;6.114;2023-01-25T07:42:28;26.63;;;12.63;;
12760;SDS011;6444;49.742;6.114;2023-01-25T07:44:55;24.90;;;12.60;;
12760;SDS011;6444;49.742;6.114;2023-01-25T07:47:22;29.02;;;16.60;;
12760;SDS011;6444;49.742;6.114;2023-01-25T07:49:48;29.83;;;17.73;;
12760;SDS011;6444;49.742;6.114;2023-01-25T07:52:15;26.87;;;15.45;;
12760;SDS011;6444;49.742;6.114;2023-01-25T07:54:42;23.77;;;12.03;;
12760;SDS011;6444;49.742;6.114;2023-01-25T07:57:08;23.97;;;11.50;;
12760;SDS011;6444;49.742;6.114;2023-01-25T07:59:35;23.73;;;10.60;;
12760;SDS011;6444;49.742;6.114;2023-01-25T08:02:02;19.97;;;9.50;;
12760;SDS011;6444;49.742;6.114;2023-01-25T08:04:32;19.20;;;10.30;;
12760;SDS011;6444;49.742;6.114;2023-01-25T08:06:58;18.27;;;10.27;;
12760;SDS011;6444;49.742;6.114;2023-01-25T08:09:25;20.53;;;10.03;;
12760;SDS011;6444;49.742;6.114;2023-01-25T08:11:52;17.60;;;9.57;;
12760;SDS011;6444;49.742;6.114;2023-01-25T08:14:18;19.60;;;10.60;;
12760;SDS011;6444;49.742;6.114;2023-01-25T08:16:45;21.77;;;11.30;;
12760;SDS011;6444;49.742;6.114;2023-01-25T08:19:12;19.87;;;10.83;;
12760;SDS011;6444;49.742;6.114;2023-01-25T08:21:39;21.27;;;9.87;;
12760;SDS011;6444;49.742;6.114;2023-01-25T08:24:06;18.10;;;9.03;;
12760;SDS011;6444;49.742;6.114;2023-01-25T08:26:33;24.97;;;13.60;;
12760;SDS011;6444;49.742;6.114;2023-01-25T08:28:59;23.43;;;12.73;;
12760;SDS011;6444;49.742;6.114;2023-01-25T08:31:27;18.43;;;10.47;;
12760;SDS011;6444;49.742;6.114;2023-01-25T08:33:52;18.87;;;9.27;;
12760;SDS011;6444;49.742;6.114;2023-01-25T08:36:19;18.70;;;9.73;;
12760;SDS011;6444;49.742;6.114;2023-01-25T08:38:46;22.30;;;13.68;;
12760;SDS011;6444;49.742;6.114;2023-01-25T08:41:13;24.85;;;15.50;;
12760;SDS011;6444;49.742;6.114;2023-01-25T08:43:39;20.03;;;10.33;;
12760;SDS011;6444;49.742;6.114;2023-01-25T08:46:05;19.03;;;11.00;;
12760;SDS011;6444;49.742;6.114;2023-01-25T08:48:32;17.63;;;9.07;;
12760;SDS011;6444;49.742;6.114;2023-01-25T08:50:59;17.33;;;9.23;;
12760;SDS011;6444;49.742;6.114;2023-01-25T08:53:28;20.77;;;11.33;;
12760;SDS011;6444;49.742;6.114;2023-01-25T08:55:55;17.17;;;9.37;;
12760;SDS011;6444;49.742;6.114;2023-01-25T08:58:22;18.03;;;9.90;;
12760;SDS011;6444;49.742;6.114;2023-01-25T09:00:48;15.87;;;8.70;;
12760;SDS011;6444;49.742;6.114;2023-01-25T09:03:16;16.93;;;8.93;;
12760;SDS011;6444;49.742;6.114;2023-01-25T09:05:42;16.50;;;9.07;;
12760;SDS011;6444;49.742;6.114;2023-01-25T09:08:09;14.43;;;8.27;;
12760;SDS011;6444;49.742;6.114;2023-01-25T09:10:36;14.70;;;8.67;;
12760;SDS011;6444;49.742;6.114;2023-01-25T09:13:03;19.77;;;8.93;;
12760;SDS011;6444;49.742;6.114;2023-01-25T09:15:30;16.93;;;8.33;;
12760;SDS011;6444;49.742;6.114;2023-01-25T09:17:56;12.97;;;7.67;;
12760;SDS011;6444;49.742;6.114;2023-01-25T09:20:24;14.73;;;7.87;;
12760;SDS011;6444;49.742;6.114;2023-01-25T09:22:50;13.10;;;7.63;;
12760;SDS011;6444;49.742;6.114;2023-01-25T09:25:20;15.73;;;8.80;;
12760;SDS011;6444;49.742;6.114;2023-01-25T09:27:44;18.20;;;8.40;;
12760;SDS011;6444;49.742;6.114;2023-01-25T09:30:11;14.50;;;8.60;;
12760;SDS011;6444;49.742;6.114;2023-01-25T09:32:38;17.07;;;8.17;;
12760;SDS011;6444;49.742;6.114;2023-01-25T09:35:04;14.30;;;7.27;;
12760;SDS011;6444;49.742;6.114;2023-01-25T09:37:31;12.17;;;6.63;;
12760;SDS011;6444;49.742;6.114;2023-01-25T09:39:58;16.23;;;8.37;;
12760;SDS011;6444;49.742;6.114;2023-01-25T09:45:24;16.10;;;9.17;;
12760;SDS011;6444;49.742;6.114;2023-01-25T09:50:30;15.17;;;8.13;;
12760;SDS011;6444;49.742;6.114;2023-01-25T09:55:43;16.57;;;9.50;;
12760;SDS011;6444;49.742;6.114;2023-01-25T09:58:16;16.97;;;9.03;;
12760;SDS011;6444;49.742;6.114;2023-01-25T10:00:40;16.27;;;9.13;;
12760;SDS011;6444;49.742;6.114;2023-01-25T10:03:09;16.43;;;9.50;;
12760;SDS011;6444;49.742;6.114;2023-01-25T10:05:41;16.20;;;8.53;;
12760;SDS011;6444;49.742;6.114;2023-01-25T10:08:20;15.47;;;8.53;;
12760;SDS011;6444;49.742;6.114;2023-01-25T10:13:47;15.40;;;8.10;;
12760;SDS011;6444;49.742;6.114;2023-01-25T10:22:00;13.93;;;8.10;;
12760;SDS011;6444;49.742;6.114;2023-01-25T10:29:49;15.57;;;9.87;;
12760;SDS011;6444;49.742;6.114;2023-01-25T10:34:44;14.67;;;8.47;;
12760;SDS011;6444;49.742;6.114;2023-01-25T10:37:11;14.90;;;7.73;;
12760;SDS011;6444;49.742;6.114;2023-01-25T10:39:36;13.87;;;8.97;;
12760;SDS011;6444;49.742;6.114;2023-01-25T10:42:05;14.63;;;7.97;;
12760;SDS011;6444;49.742;6.114;2023-01-25T10:44:31;11.40;;;7.27;;
12760;SDS011;6444;49.742;6.114;2023-01-25T10:47:00;14.83;;;8.23;;
12760;SDS011;6444;49.742;6.114;2023-01-25T10:49:50;13.90;;;8.10;;
12760;SDS011;6444;49.742;6.114;2023-01-25T10:57:43;11.67;;;7.07;;
12760;SDS011;6444;49.742;6.114;2023-01-25T11:00:18;12.30;;;7.27;;
12760;SDS011;6444;49.742;6.114;2023-01-25T11:02:40;14.53;;;8.37;;
12760;SDS011;6444;49.742;6.114;2023-01-25T11:05:22;14.97;;;8.90;;
12760;SDS011;6444;49.742;6.114;2023-01-25T11:07:47;12.03;;;7.73;;
12760;SDS011;6444;49.742;6.114;2023-01-25T11:10:29;13.50;;;7.20;;
12760;SDS011;6444;49.742;6.114;2023-01-25T11:15:43;10.73;;;7.47;;
12760;SDS011;6444;49.742;6.114;2023-01-25T11:18:14;13.83;;;7.43;;
12760;SDS011;6444;49.742;6.114;2023-01-25T11:20:39;14.00;;;8.60;;
12760;SDS011;6444;49.742;6.114;2023-01-25T11:23:18;15.93;;;8.77;;
12760;SDS011;6444;49.742;6.114;2023-01-25T11:25:32;15.07;;;9.10;;
12760;SDS011;6444;49.742;6.114;2023-01-25T11:28:09;17.20;;;10.63;;
12760;SDS011;6444;49.742;6.114;2023-01-25T11:30:44;17.00;;;10.37;;
12760;SDS011;6444;49.742;6.114;2023-01-25T11:33:12;16.07;;;10.43;;
12760;SDS011;6444;49.742;6.114;2023-01-25T11:36:04;16.20;;;8.80;;
12760;SDS011;6444;49.742;6.114;2023-01-25T11:38:14;15.23;;;9.03;;
12760;SDS011;6444;49.742;6.114;2023-01-25T11:46:04;14.07;;;8.37;;
12760;SDS011;6444;49.742;6.114;2023-01-25T11:48:32;14.23;;;8.87;;
12760;SDS011;6444;49.742;6.114;2023-01-25T11:51:12;18.17;;;10.40;;
12760;SDS011;6444;49.742;6.114;2023-01-25T11:53:54;15.93;;;9.37;;
12760;SDS011;6444;49.742;6.114;2023-01-25T12:01:50;15.00;;;8.70;;
12760;SDS011;6444;49.742;6.114;2023-01-25T12:04:24;16.27;;;9.07;;
12760;SDS011;6444;49.742;6.114;2023-01-25T12:06:55;15.13;;;8.80;;
12760;SDS011;6444;49.742;6.114;2023-01-25T12:12:37;16.42;;;12.00;;
12760;SDS011;6444;49.742;6.114;2023-01-25T12:20:47;15.40;;;10.67;;
12760;SDS011;6444;49.742;6.114;2023-01-25T12:29:08;15.20;;;8.57;;
12760;SDS011;6444;49.742;6.114;2023-01-25T12:32:02;15.23;;;11.12;;
12760;SDS011;6444;49.742;6.114;2023-01-25T12:34:41;15.30;;;9.63;;
12760;SDS011;6444;49.742;6.114;2023-01-25T12:37:05;14.23;;;8.77;;
12760;SDS011;6444;49.742;6.114;2023-01-25T12:39:34;18.10;;;8.43;;
12760;SDS011;6444;49.742;6.114;2023-01-25T12:42:03;13.37;;;7.50;;
12760;SDS011;6444;49.742;6.114;2023-01-25T12:44:36;14.10;;;8.10;;
12760;SDS011;6444;49.742;6.114;2023-01-25T12:47:13;13.30;;;7.67;;
12760;SDS011;6444;49.742;6.114;2023-01-25T12:49:46;12.70;;;7.53;;
12760;SDS011;6444;49.742;6.114;2023-01-25T12:52:24;12.50;;;7.50;;
12760;SDS011;6444;49.742;6.114;2023-01-25T12:54:46;12.03;;;7.23;;
12760;SDS011;6444;49.742;6.114;2023-01-25T12:57:15;12.33;;;7.97;;
12760;SDS011;6444;49.742;6.114;2023-01-25T12:59:51;12.83;;;7.90;;
12760;SDS011;6444;49.742;6.114;2023-01-25T13:02:32;10.50;;;6.70;;
12760;SDS011;6444;49.742;6.114;2023-01-25T13:05:17;13.17;;;7.53;;
12760;SDS011;6444;49.742;6.114;2023-01-25T13:07:49;12.67;;;8.07;;
12760;SDS011;6444;49.742;6.114;2023-01-25T13:10:17;12.07;;;7.40;;
12760;SDS011;6444;49.742;6.114;2023-01-25T13:15:39;12.13;;;6.83;;
12760;SDS011;6444;49.742;6.114;2023-01-25T13:20:54;13.43;;;8.23;;
12760;SDS011;6444;49.742;6.114;2023-01-25T13:23:29;12.00;;;7.73;;
12760;SDS011;6444;49.742;6.114;2023-01-25T13:28:52;15.20;;;7.87;;
12760;SDS011;6444;49.742;6.114;2023-01-25T13:34:03;14.37;;;8.73;;
12760;SDS011;6444;49.742;6.114;2023-01-25T13:36:36;15.10;;;10.35;;
12760;SDS011;6444;49.742;6.114;2023-01-25T13:39:39;15.23;;;11.00;;
12760;SDS011;6444;49.742;6.114;2023-01-25T13:44:30;15.48;;;11.07;;
12760;SDS011;6444;49.742;6.114;2023-01-25T13:47:00;14.10;;;8.87;;
12760;SDS011;6444;49.742;6.114;2023-01-25T13:49:30;13.93;;;8.70;;
12760;SDS011;6444;49.742;6.114;2023-01-25T13:52:02;13.23;;;8.37;;
12760;SDS011;6444;49.742;6.114;2023-01-25T13:54:28;13.33;;;8.23;;
12760;SDS011;6444;49.742;6.114;2023-01-25T13:59:40;14.33;;;7.93;;
12760;SDS011;6444;49.742;6.114;2023-01-25T14:02:29;11.80;;;7.07;;
12760;SDS011;6444;49.742;6.114;2023-01-25T14:04:45;12.23;;;9.15;;
12760;SDS011;6444;49.742;6.114;2023-01-25T14:07:13;12.90;;;7.23;;
12760;SDS011;6444;49.742;6.114;2023-01-25T14:09:41;11.03;;;6.97;;
12760;SDS011;6444;49.742;6.114;2023-01-25T14:12:09;13.13;;;8.07;;
12760;SDS011;6444;49.742;6.114;2023-01-25T14:14:35;12.50;;;7.73;;
12760;SDS011;6444;49.742;6.114;2023-01-25T14:17:03;11.90;;;7.63;;
12760;SDS011;6444;49.742;6.114;2023-01-25T14:19:35;11.57;;;7.17;;
12760;SDS011;6444;49.742;6.114;2023-01-25T14:22:20;13.43;;;7.63;;
12760;SDS011;6444;49.742;6.114;2023-01-25T14:25:23;11.57;;;7.23;;
12760;SDS011;6444;49.742;6.114;2023-01-25T14:27:31;11.67;;;7.17;;
12760;SDS011;6444;49.742;6.114;2023-01-25T14:29:57;11.03;;;7.10;;
12760;SDS011;6444;49.742;6.114;2023-01-25T14:32:24;11.30;;;7.13;;
12760;SDS011;6444;49.742;6.114;2023-01-25T14:34:50;13.30;;;8.23;;
12760;SDS011;6444;49.742;6.114;2023-01-25T14:37:19;11.83;;;7.53;;
12760;SDS011;6444;49.742;6.114;2023-01-25T14:39:45;12.30;;;7.57;;
12760;SDS011;6444;49.742;6.114;2023-01-25T14:42:11;15.23;;;8.23;;
12760;SDS011;6444;49.742;6.114;2023-01-25T14:44:38;14.93;;;8.37;;
12760;SDS011;6444;49.742;6.114;2023-01-25T14:53:20;13.83;;;7.77;;
12760;SDS011;6444;49.742;6.114;2023-01-25T14:55:49;16.07;;;8.67;;
12760;SDS011;6444;49.742;6.114;2023-01-25T14:58:16;14.73;;;8.87;;
12760;SDS011;6444;49.742;6.114;2023-01-25T15:00:50;16.10;;;8.93;;
12760;SDS011;6444;49.742;6.114;2023-01-25T15:03:13;14.10;;;8.13;;
12760;SDS011;6444;49.742;6.114;2023-01-25T15:05:36;14.20;;;8.73;;
12760;SDS011;6444;49.742;6.114;2023-01-25T15:10:33;19.20;;;12.25;;
12760;SDS011;6444;49.742;6.114;2023-01-25T15:13:00;15.27;;;9.87;;
12760;SDS011;6444;49.742;6.114;2023-01-25T15:15:26;14.13;;;8.47;;
12760;SDS011;6444;49.742;6.114;2023-01-25T15:17:52;13.70;;;7.83;;
12760;SDS011;6444;49.742;6.114;2023-01-25T15:20:33;23.00;;;14.03;;
12760;SDS011;6444;49.742;6.114;2023-01-25T15:22:59;14.63;;;8.43;;
12760;SDS011;6444;49.742;6.114;2023-01-25T15:25:25;16.47;;;8.70;;
12760;SDS011;6444;49.742;6.114;2023-01-25T15:27:52;16.83;;;9.57;;
12760;SDS011;6444;49.742;6.114;2023-01-25T15:30:18;18.20;;;10.90;;
12760;SDS011;6444;49.742;6.114;2023-01-25T15:32:45;22.00;;;15.07;;
12760;SDS011;6444;49.742;6.114;2023-01-25T15:35:12;16.70;;;10.37;;
12760;SDS011;6444;49.742;6.114;2023-01-25T15:37:38;19.17;;;10.20;;
12760;SDS011;6444;49.742;6.114;2023-01-25T15:40:05;15.77;;;9.03;;
12760;SDS011;6444;49.742;6.114;2023-01-25T15:42:31;14.97;;;8.10;;
12760;SDS011;6444;49.742;6.114;2023-01-25T15:45:01;18.07;;;9.37;;
12760;SDS011;6444;49.742;6.114;2023-01-25T15:47:27;16.67;;;8.47;;
12760;SDS011;6444;49.742;6.114;2023-01-25T15:49:54;17.53;;;9.87;;
12760;SDS011;6444;49.742;6.114;2023-01-25T15:52:21;17.43;;;9.90;;
12760;SDS011;6444;49.742;6.114;2023-01-25T15:54:48;18.27;;;9.27;;
12760;SDS011;6444;49.742;6.114;2023-01-25T15:57:36;14.20;;;8.30;;
12760;SDS011;6444;49.742;6.114;2023-01-25T15:59:41;15.17;;;8.67;;
12760;SDS011;6444;49.742;6.114;2023-01-25T16:02:11;15.57;;;9.53;;
12760;SDS011;6444;49.742;6.114;2023-01-25T16:04:37;15.90;;;9.03;;
12760;SDS011;6444;49.742;6.114;2023-01-25T16:07:04;15.73;;;8.70;;
12760;SDS011;6444;49.742;6.114;2023-01-25T16:09:31;20.90;;;11.50;;
12760;SDS011;6444;49.742;6.114;2023-01-25T16:11:58;21.03;;;11.70;;
12760;SDS011;6444;49.742;6.114;2023-01-25T16:14:24;16.30;;;8.60;;
12760;SDS011;6444;49.742;6.114;2023-01-25T16:16:54;14.63;;;9.03;;
12760;SDS011;6444;49.742;6.114;2023-01-25T16:19:21;19.13;;;11.00;;
12760;SDS011;6444;49.742;6.114;2023-01-25T16:21:49;14.67;;;9.17;;